Time;durP1;ratioP1;P1;durP2;ratioP2;P2;SDS_P1;SDS_P2;PMS_P1;PMS_P2;Temp;Humidity;BMP_temperature;BMP_pressure;BME280_temperature;BME280_humidity;BME280_pressure;Samples;Min_cycle;Max_cycle;Signal;HPM_P1;HPM_P2
2024/01/30 00:00:25;;;;;;;10.20;5.10;;;;;;;2.01;66.48;98419.98;108963;1272;22514;-76
2024/01/30 00:03:16;;;;;;;8.70;4.80;;;;;;;2.06;66.57;98419.28;108928;1272;113030;-76
2024/01/30 00:05:50;;;;;;;6.60;3.60;;;;;;;2.11;65.89;98418.50;108974;1266;22495;-76
2024/01/30 00:08:26;;;;;;;6.20;3.90;;;;;;;2.16;65.59;98417.09;109000;1266;22656;-76
2024/01/30 00:11:02;;;;;;;10.20;5.20;;;;;;;2.15;65.61;98421.88;108969;1266;22563;-76
2024/01/30 00:13:35;;;;;;;4.80;3.20;;;;;;;2.10;65.85;98416.16;108982;1273;22699;-76
2024/01/30 00:16:08;;;;;;;6.30;3.80;;;;;;;2.09;65.83;98414.00;108961;1272;23491;-76
2024/01/30 00:18:40;;;;;;;9.70;5.00;;;;;;;2.07;65.65;98413.77;109007;1269;22532;-76
2024/01/30 00:21:11;;;;;;;7.30;3.80;;;;;;;2.08;65.14;98408.96;109001;1266;23238;-76
2024/01/30 00:23:42;;;;;;;10.70;5.20;;;;;;;2.12;65.08;98406.23;108942;1266;25109;-76
2024/01/30 00:26:14;;;;;;;9.50;3.90;;;;;;;2.19;64.63;98409.89;108986;1271;22687;-76
2024/01/30 00:28:53;;;;;;;6.00;3.80;;;;;;;2.18;64.77;98403.84;108965;1273;22535;-75
2024/01/30 00:31:24;;;;;;;6.80;3.80;;;;;;;2.20;64.63;98408.34;108979;1273;22537;-76
2024/01/30 00:33:58;;;;;;;7.70;3.50;;;;;;;2.25;64.18;98400.08;109010;1250;23832;-75
2024/01/30 00:36:30;;;;;;;6.00;3.60;;;;;;;2.29;64.17;98407.98;109030;1266;22561;-75
2024/01/30 00:39:06;;;;;;;7.80;4.40;;;;;;;2.32;63.87;98405.55;108973;1272;25424;-76
2024/01/30 00:41:39;;;;;;;7.40;3.00;;;;;;;2.34;63.84;98403.89;108877;1266;23803;-76
2024/01/30 00:44:12;;;;;;;7.20;3.20;;;;;;;2.36;63.31;98408.06;108923;1273;25242;-76
2024/01/30 00:46:46;;;;;;;9.80;4.60;;;;;;;2.32;63.30;98406.47;108934;1266;22520;-76
2024/01/30 00:49:20;;;;;;;8.20;4.90;;;;;;;2.25;63.53;98412.51;108930;1270;22520;-76
2024/01/30 00:51:56;;;;;;;7.20;4.50;;;;;;;2.17;63.97;98403.99;108875;1273;22513;-76
2024/01/30 00:54:27;;;;;;;11.50;5.30;;;;;;;2.11;64.29;98403.38;108835;1273;24309;-76
2024/01/30 00:57:01;;;;;;;6.10;3.70;;;;;;;2.09;64.31;98402.45;108859;1266;22869;-75
2024/01/30 00:59:32;;;;;;;7.70;3.80;;;;;;;2.10;64.27;98396.86;108852;1273;22960;-76
2024/01/30 01:02:06;;;;;;;7.70;4.10;;;;;;;2.10;64.01;98401.81;108871;1266;22482;-75
2024/01/30 01:04:39;;;;;;;6.20;3.30;;;;;;;2.08;64.21;98394.39;108850;1269;24327;-76
2024/01/30 01:07:13;;;;;;;7.60;3.80;;;;;;;2.05;64.23;98383.94;108865;1273;22972;-76
2024/01/30 01:09:44;;;;;;;5.40;3.30;;;;;;;2.12;64.02;98393.29;108877;1255;22888;-76
2024/01/30 01:12:22;;;;;;;5.90;2.90;;;;;;;2.22;63.33;98385.41;108864;1273;24317;-76
2024/01/30 01:14:56;;;;;;;5.20;2.50;;;;;;;2.28;63.14;98389.98;108803;1266;22562;-76
2024/01/30 01:17:27;;;;;;;5.50;2.90;;;;;;;2.28;62.84;98387.33;108889;1266;23899;-76
2024/01/30 01:20:01;;;;;;;6.50;2.60;;;;;;;2.33;62.66;98394.65;108867;1273;22528;-76
2024/01/30 01:22:35;;;;;;;5.20;3.60;;;;;;;2.30;62.59;98384.52;108811;1273;25233;-76
2024/01/30 01:25:12;;;;;;;7.00;3.60;;;;;;;2.25;62.54;98380.38;108890;1266;23679;-76
2024/01/30 01:27:44;;;;;;;5.90;3.60;;;;;;;2.21;62.31;98376.37;108899;1272;22529;-76
2024/01/30 01:30:21;;;;;;;9.70;3.80;;;;;;;2.15;62.55;98376.70;108837;1249;22807;-76
2024/01/30 01:32:56;;;;;;;6.50;4.00;;;;;;;2.10;62.53;98382.67;108873;1265;22546;-76
2024/01/30 01:35:29;;;;;;;6.50;3.60;;;;;;;2.06;62.66;98381.80;108870;1273;22986;-76
2024/01/30 01:38:00;;;;;;;5.30;3.40;;;;;;;2.01;62.93;98392.45;108832;1273;22559;-76
2024/01/30 01:40:39;;;;;;;5.40;2.80;;;;;;;1.96;62.91;98390.41;108844;1273;23765;-76
2024/01/30 01:43:13;;;;;;;8.90;4.00;;;;;;;1.92;63.11;98385.23;108874;1272;22639;-75
2024/01/30 01:45:44;;;;;;;5.90;3.50;;;;;;;1.88;63.01;98386.55;108837;1266;24321;-76
2024/01/30 01:48:18;;;;;;;7.80;3.20;;;;;;;1.84;63.29;98395.91;108858;1273;22644;-76
2024/01/30 01:50:53;;;;;;;8.90;3.80;;;;;;;1.83;63.40;98391.30;108862;1272;24187;-76
2024/01/30 01:53:27;;;;;;;7.30;2.90;;;;;;;1.78;63.42;98383.50;108877;1273;22630;-76
2024/01/30 01:56:04;;;;;;;4.70;3.40;;;;;;;1.77;63.53;98389.29;108871;1272;25509;-76
2024/01/30 01:58:36;;;;;;;7.60;3.30;;;;;;;1.72;63.66;98390.14;108868;1269;22524;-76
2024/01/30 02:01:09;;;;;;;8.30;4.30;;;;;;;1.73;63.73;98388.30;108894;1269;24217;-76
2024/01/30 02:03:48;;;;;;;9.90;3.40;;;;;;;1.74;63.46;98388.16;108894;1269;23702;-76
2024/01/30 02:06:19;;;;;;;9.30;4.40;;;;;;;1.74;63.33;98392.49;108891;1272;22548;-76
2024/01/30 02:08:51;;;;;;;7.20;3.40;;;;;;;1.74;63.57;98392.14;108890;1266;22544;-75
2024/01/30 02:11:25;;;;;;;6.70;3.30;;;;;;;1.70;63.61;98390.67;108848;1272;22576;-76
2024/01/30 02:13:56;;;;;;;5.30;3.00;;;;;;;1.71;63.65;98385.50;108911;1272;25502;-76
2024/01/30 02:16:27;;;;;;;6.40;3.50;;;;;;;1.71;63.62;98380.50;108899;1273;24238;-75
2024/01/30 02:19:01;;;;;;;7.70;3.30;;;;;;;1.68;63.58;98378.37;108896;1273;22524;-76
2024/01/30 02:21:33;;;;;;;6.40;3.70;;;;;;;1.75;63.53;98383.02;108931;1266;23137;-76
2024/01/30 02:24:08;;;;;;;5.50;3.20;;;;;;;1.77;63.38;98376.16;108900;1272;23940;-76
2024/01/30 02:26:39;;;;;;;6.70;3.40;;;;;;;1.79;63.22;98381.58;108869;1273;22585;-75
2024/01/30 02:29:12;;;;;;;5.20;2.70;;;;;;;1.78;62.98;98380.84;108897;1269;22567;-75
2024/01/30 02:31:45;;;;;;;6.40;2.30;;;;;;;1.74;63.36;98382.60;108877;1269;23237;-75
2024/01/30 02:34:20;;;;;;;6.20;3.40;;;;;;;1.68;63.24;98381.17;108866;1273;24002;-75
2024/01/30 02:36:58;;;;;;;6.10;3.60;;;;;;;1.70;63.28;98373.45;108925;1273;22549;-75
2024/01/30 02:39:31;;;;;;;7.00;3.60;;;;;;;1.72;62.93;98369.84;108965;1266;22566;-75
2024/01/30 02:42:05;;;;;;;6.90;3.50;;;;;;;1.74;63.05;98370.38;108928;1272;22531;-75
2024/01/30 02:44:38;;;;;;;4.60;2.70;;;;;;;1.66;63.33;98365.94;108907;1250;22548;-75
2024/01/30 02:47:12;;;;;;;6.30;3.70;;;;;;;1.61;63.14;98362.66;108896;1251;22544;-75
2024/01/30 02:49:45;;;;;;;4.10;3.00;;;;;;;1.63;63.47;98363.28;108864;1266;22566;-75
2024/01/30 02:52:20;;;;;;;6.40;3.50;;;;;;;1.61;63.21;98361.42;108850;1273;22549;-75
2024/01/30 02:54:54;;;;;;;6.00;3.40;;;;;;;1.59;63.35;98355.83;108864;1270;22608;-75
2024/01/30 02:57:25;;;;;;;9.20;3.40;;;;;;;1.55;63.41;98357.48;108828;1270;22521;-74
2024/01/30 02:59:59;;;;;;;6.50;3.80;;;;;;;1.54;63.75;98363.66;108866;1272;22531;-75
2024/01/30 03:02:31;;;;;;;8.70;4.70;;;;;;;1.58;63.66;98361.48;108852;1266;22624;-75
2024/01/30 03:05:08;;;;;;;6.90;4.40;;;;;;;1.59;63.35;98363.83;108870;1269;25450;-75
2024/01/30 03:07:42;;;;;;;4.70;3.30;;;;;;;1.69;63.02;98359.67;108922;1273;22518;-75
2024/01/30 03:10:18;;;;;;;10.50;4.60;;;;;;;1.73;62.61;98360.19;108917;1266;22547;-75
2024/01/30 03:12:51;;;;;;;6.00;3.30;;;;;;;1.74;62.64;98359.55;108877;1272;22510;-75
2024/01/30 03:15:23;;;;;;;6.90;2.90;;;;;;;1.70;62.64;98355.84;108878;1273;25486;-75
2024/01/30 03:17:56;;;;;;;7.90;3.90;;;;;;;1.66;62.52;98354.32;108871;1273;22542;-75
2024/01/30 03:20:29;;;;;;;7.70;4.30;;;;;;;1.67;62.63;98354.21;108909;1266;22517;-75
2024/01/30 03:23:05;;;;;;;7.50;4.80;;;;;;;1.64;62.45;98353.12;108855;1272;22515;-75
2024/01/30 03:25:38;;;;;;;6.70;3.20;;;;;;;1.67;62.41;98342.72;108876;1266;22562;-75
2024/01/30 03:28:16;;;;;;;5.80;3.20;;;;;;;1.69;62.27;98349.11;108881;1269;22508;-75
2024/01/30 03:30:49;;;;;;;7.50;3.80;;;;;;;1.62;62.67;98345.94;108862;1272;22514;-75
2024/01/30 03:33:22;;;;;;;9.10;4.60;;;;;;;1.60;62.93;98351.30;108875;1273;22542;-75
2024/01/30 03:35:53;;;;;;;6.50;4.10;;;;;;;1.54;63.00;98348.66;108872;1266;22540;-75
2024/01/30 03:38:26;;;;;;;6.00;3.60;;;;;;;1.56;62.93;98351.95;108863;1273;22832;-75
2024/01/30 03:41:00;;;;;;;7.10;4.20;;;;;;;1.63;63.04;98344.95;108857;1272;25955;-75
2024/01/30 03:43:33;;;;;;;5.40;2.90;;;;;;;1.61;62.97;98349.27;108854;1271;24198;-75
2024/01/30 03:46:08;;;;;;;5.80;3.40;;;;;;;1.55;63.02;98347.16;108908;1272;25165;-75
2024/01/30 03:48:42;;;;;;;8.40;4.50;;;;;;;1.55;63.24;98339.97;108877;1273;24200;-75
2024/01/30 03:51:16;;;;;;;8.70;4.40;;;;;;;1.56;63.07;98336.45;108843;1272;22534;-75
2024/01/30 03:53:47;;;;;;;6.10;3.30;;;;;;;1.53;63.16;98339.89;108862;1272;22764;-75
2024/01/30 03:56:22;;;;;;;4.20;2.70;;;;;;;1.55;62.88;98341.77;108941;1272;23786;-75
2024/01/30 03:58:54;;;;;;;6.40;3.50;;;;;;;1.56;62.64;98341.80;108900;1265;22516;-75
2024/01/30 04:01:27;;;;;;;5.00;3.60;;;;;;;1.67;62.26;98330.27;108881;1272;22525;-75
2024/01/30 04:04:01;;;;;;;8.10;4.50;;;;;;;1.76;61.98;98339.95;108840;1265;22540;-75
2024/01/30 04:06:35;;;;;;;7.40;3.80;;;;;;;1.76;61.77;98338.55;108854;1266;22657;-75
2024/01/30 04:09:05;;;;;;;6.50;3.50;;;;;;;1.74;61.68;98339.85;108886;1272;25428;-75
2024/01/30 04:11:37;;;;;;;5.00;3.10;;;;;;;1.73;61.73;98335.21;108858;1269;25285;-75
2024/01/30 04:14:11;;;;;;;5.90;3.10;;;;;;;1.72;61.58;98336.73;108904;1266;23819;-75
2024/01/30 04:16:47;;;;;;;6.70;3.00;;;;;;;1.71;61.64;98339.52;108879;1269;23804;-75
2024/01/30 04:19:20;;;;;;;7.50;3.20;;;;;;;1.65;61.71;98345.59;108882;1273;22535;-75
2024/01/30 04:21:51;;;;;;;6.60;2.20;;;;;;;1.68;61.88;98345.81;108873;1273;22527;-75
2024/01/30 04:24:24;;;;;;;7.20;4.30;;;;;;;1.69;62.01;98352.52;108878;1272;24674;-75
2024/01/30 04:27:06;;;;;;;6.00;2.70;;;;;;;1.62;62.10;98352.38;108878;1273;22517;-75
2024/01/30 04:29:39;;;;;;;4.20;3.00;;;;;;;1.61;61.92;98350.64;108883;1270;25462;-75
2024/01/30 04:32:14;;;;;;;4.70;3.00;;;;;;;1.59;62.09;98355.79;108814;1269;24385;-75
2024/01/30 04:34:48;;;;;;;7.20;4.10;;;;;;;1.53;62.29;98346.48;108837;1266;22550;-75
2024/01/30 04:37:21;;;;;;;6.00;2.90;;;;;;;1.52;62.22;98345.77;108872;1273;22658;-75
2024/01/30 04:39:55;;;;;;;6.60;3.70;;;;;;;1.58;62.14;98346.00;108847;1266;22634;-75
2024/01/30 04:42:28;;;;;;;5.20;2.90;;;;;;;1.58;62.21;98345.21;108846;1251;23828;-75
2024/01/30 04:45:02;;;;;;;6.60;4.10;;;;;;;1.60;62.25;98351.66;108897;1273;22935;-75
2024/01/30 04:47:33;;;;;;;7.00;3.80;;;;;;;1.56;62.19;98354.54;108890;1272;22486;-75
2024/01/30 04:50:09;;;;;;;7.20;3.60;;;;;;;1.49;62.36;98358.29;108894;1273;22540;-75
2024/01/30 04:52:43;;;;;;;7.10;3.50;;;;;;;1.45;62.59;98352.71;108915;1269;23877;-75
2024/01/30 04:55:18;;;;;;;6.30;3.30;;;;;;;1.42;62.82;98359.80;108923;1269;22674;-75
2024/01/30 04:57:55;;;;;;;5.80;3.50;;;;;;;1.39;62.85;98367.13;108913;1272;25450;-75
2024/01/30 05:00:35;;;;;;;7.00;4.10;;;;;;;1.36;63.06;98366.27;108901;1273;23805;-76
2024/01/30 05:03:08;;;;;;;9.70;4.00;;;;;;;1.37;63.03;98373.96;108859;1266;22521;-75
2024/01/30 05:05:40;;;;;;;5.10;2.80;;;;;;;1.40;63.15;98376.92;108909;1266;22527;-76
2024/01/30 05:08:14;;;;;;;4.80;2.30;;;;;;;1.36;63.10;98373.35;108846;1269;22829;-75
2024/01/30 05:10:45;;;;;;;7.30;4.30;;;;;;;1.37;62.97;98377.79;108900;1273;22639;-76
2024/01/30 05:13:19;;;;;;;6.10;3.90;;;;;;;1.34;63.19;98374.88;108856;1272;24909;-75
2024/01/30 05:15:52;;;;;;;6.60;3.80;;;;;;;1.33;63.25;98375.64;108867;1272;22513;-75
2024/01/30 05:18:25;;;;;;;5.30;2.90;;;;;;;1.35;63.54;98379.77;108904;1273;22651;-75
2024/01/30 05:20:55;;;;;;;7.40;4.00;;;;;;;1.33;63.53;98381.78;108856;1273;22510;-75
2024/01/30 05:23:29;;;;;;;7.00;3.70;;;;;;;1.26;63.85;98387.48;108834;1273;24251;-76
2024/01/30 05:26:05;;;;;;;8.70;3.70;;;;;;;1.24;63.84;98384.16;108856;1272;24398;-76
2024/01/30 05:28:36;;;;;;;8.10;4.10;;;;;;;1.26;63.74;98391.98;108917;1272;22559;-76
2024/01/30 05:31:10;;;;;;;7.30;3.70;;;;;;;1.20;63.95;98384.81;108910;1270;22554;-76
2024/01/30 05:33:47;;;;;;;7.50;4.00;;;;;;;1.22;63.84;98386.17;108858;1272;22531;-76
2024/01/30 05:36:21;;;;;;;5.50;4.10;;;;;;;1.21;64.12;98379.29;108856;1272;23798;-76
2024/01/30 05:38:57;;;;;;;6.20;2.80;;;;;;;1.25;64.12;98382.71;108856;1272;22532;-75
2024/01/30 05:41:35;;;;;;;8.00;4.10;;;;;;;1.27;63.91;98377.05;108891;1272;22499;-76
2024/01/30 05:44:09;;;;;;;5.70;3.60;;;;;;;1.23;64.00;98377.34;108877;1269;23775;-76
2024/01/30 05:46:42;;;;;;;6.90;3.40;;;;;;;1.20;63.98;98373.09;108886;1250;22935;-76
2024/01/30 05:49:16;;;;;;;9.10;3.90;;;;;;;1.17;64.09;98362.12;108893;1266;23798;-76
2024/01/30 05:51:50;;;;;;;7.40;3.50;;;;;;;1.12;64.44;98368.58;108840;1273;22549;-75
2024/01/30 05:54:26;;;;;;;6.60;3.40;;;;;;;1.08;64.47;98364.89;108874;1273;23050;-76
2024/01/30 05:56:57;;;;;;;6.80;3.30;;;;;;;1.06;64.63;98366.86;108891;1273;22836;-75
2024/01/30 05:59:30;;;;;;;6.00;3.20;;;;;;;1.02;64.62;98365.11;108830;1269;22521;-76
2024/01/30 06:02:06;;;;;;;5.60;3.30;;;;;;;1.01;64.88;98372.02;108855;1273;22523;-75
2024/01/30 06:04:42;;;;;;;8.90;3.60;;;;;;;0.98;64.84;98370.48;108855;1273;23797;-75
2024/01/30 06:07:17;;;;;;;7.80;3.60;;;;;;;0.93;65.09;98374.42;108874;1266;24339;-75
2024/01/30 06:09:51;;;;;;;6.50;3.70;;;;;;;0.91;65.25;98371.58;108898;1273;22535;-76
2024/01/30 06:12:23;;;;;;;5.20;2.80;;;;;;;0.98;65.16;98380.90;108873;1267;24144;-75
2024/01/30 06:14:58;;;;;;;7.30;3.10;;;;;;;1.09;65.19;98385.54;108857;1269;23012;-76
2024/01/30 06:17:30;;;;;;;7.70;3.90;;;;;;;1.12;65.01;98384.84;108925;1273;22598;-76
2024/01/30 06:20:01;;;;;;;7.80;4.70;;;;;;;1.13;64.80;98379.13;108946;1273;22998;-75
2024/01/30 06:22:35;;;;;;;4.60;2.40;;;;;;;1.16;64.73;98386.58;108944;1269;23041;-76
2024/01/30 06:25:07;;;;;;;9.20;3.90;;;;;;;1.23;64.56;98391.41;108970;1273;23673;-76
2024/01/30 06:27:40;;;;;;;8.30;4.40;;;;;;;1.21;64.52;98395.80;108938;1270;22529;-76
2024/01/30 06:30:17;;;;;;;5.70;3.30;;;;;;;1.23;64.53;98394.42;108946;1273;22522;-76
2024/01/30 06:32:49;;;;;;;6.30;4.00;;;;;;;1.25;64.06;98394.18;108983;1272;22524;-75
2024/01/30 06:35:21;;;;;;;7.60;3.90;;;;;;;1.28;63.84;98388.79;108996;1273;23756;-76
2024/01/30 06:38:02;;;;;;;6.60;3.60;;;;;;;1.32;63.57;98382.94;108971;1269;22517;-76
2024/01/30 06:40:33;;;;;;;9.00;4.50;;;;;;;1.35;63.40;98385.75;108977;1273;22510;-76
2024/01/30 06:43:05;;;;;;;7.90;4.30;;;;;;;1.40;63.25;98369.47;108982;1267;22544;-76
2024/01/30 06:45:44;;;;;;;7.00;3.90;;;;;;;1.67;63.17;98377.23;109017;1273;22989;-76
2024/01/30 06:48:15;;;;;;;6.00;3.00;;;;;;;2.03;62.25;98366.63;108977;1273;25425;-76
2024/01/30 06:50:51;;;;;;;7.50;4.50;;;;;;;2.40;62.11;98372.32;108996;1272;25416;-76
2024/01/30 06:53:22;;;;;;;9.20;4.70;;;;;;;2.67;61.08;98371.67;108994;1272;24751;-76
2024/01/30 06:55:54;;;;;;;6.90;3.90;;;;;;;2.86;60.62;98362.02;108988;1272;22724;-76
2024/01/30 06:58:27;;;;;;;8.40;3.90;;;;;;;2.92;59.44;98350.37;109005;1269;24418;-76
2024/01/30 07:01:01;;;;;;;8.00;4.60;;;;;;;2.95;58.91;98356.09;109020;1272;22843;-76
2024/01/30 07:03:37;;;;;;;7.80;4.10;;;;;;;3.07;59.24;98361.84;108993;1266;23680;-76
2024/01/30 07:06:09;;;;;;;9.70;5.00;;;;;;;3.20;58.61;98362.63;108916;1272;23090;-76
2024/01/30 07:08:39;;;;;;;9.20;4.60;;;;;;;3.45;58.77;98357.11;108984;1272;23644;-76
2024/01/30 07:11:12;;;;;;;6.80;4.10;;;;;;;3.68;58.15;98361.89;108949;1272;23807;-76
2024/01/30 07:13:46;;;;;;;7.80;4.80;;;;;;;3.83;57.33;98364.02;108901;1272;22531;-75
2024/01/30 07:16:22;;;;;;;8.70;4.30;;;;;;;3.96;56.04;98361.52;108921;1272;22822;-75
2024/01/30 07:19:01;;;;;;;7.60;4.40;;;;;;;4.08;55.13;98371.00;108905;1272;22524;-76
2024/01/30 07:21:32;;;;;;;6.70;4.30;;;;;;;4.27;55.49;98373.07;108914;1272;22989;-76
2024/01/30 07:24:03;;;;;;;7.50;4.30;;;;;;;4.51;55.02;98376.98;108900;1272;22584;-76
2024/01/30 07:26:35;;;;;;;6.70;3.30;;;;;;;4.72;54.36;98376.41;108874;1272;22600;-76
2024/01/30 07:29:08;;;;;;;7.00;4.70;;;;;;;4.86;54.20;98369.62;108872;1272;22624;-76
2024/01/30 07:31:43;;;;;;;7.10;4.80;;;;;;;5.11;53.59;98374.48;108816;1266;22497;-77
2024/01/30 07:34:14;;;;;;;7.80;4.40;;;;;;;5.29;53.86;98379.90;108885;1272;22532;-76
2024/01/30 07:36:46;;;;;;;7.20;4.70;;;;;;;5.38;53.20;98371.73;108904;1266;22563;-76
2024/01/30 07:39:20;;;;;;;8.80;5.40;;;;;;;5.60;53.16;98373.59;108876;1272;23364;-76
2024/01/30 07:41:54;;;;;;;6.70;4.60;;;;;;;5.68;52.40;98370.96;108823;1266;22554;-76
2024/01/30 07:44:25;;;;;;;6.20;4.20;;;;;;;5.62;50.69;98372.15;108917;1272;24215;-76
2024/01/30 07:47:00;;;;;;;7.00;3.80;;;;;;;5.39;50.13;98370.23;108926;1267;22522;-76
2024/01/30 07:49:32;;;;;;;7.40;4.80;;;;;;;5.29;50.08;98362.13;108976;1269;25459;-76
2024/01/30 07:52:03;;;;;;;8.50;5.10;;;;;;;5.29;50.89;98370.59;108931;1271;22520;-76
2024/01/30 07:54:39;;;;;;;9.70;4.50;;;;;;;5.49;51.36;98368.62;108963;1267;22520;-76
2024/01/30 07:57:11;;;;;;;7.40;5.10;;;;;;;5.49;50.53;98364.86;108911;1265;22507;-76
2024/01/30 07:59:45;;;;;;;8.60;5.60;;;;;;;5.42;50.77;98368.05;108947;1269;22500;-76
2024/01/30 08:02:22;;;;;;;7.50;3.90;;;;;;;5.38;50.32;98367.05;108851;1266;22530;-76
2024/01/30 08:04:55;;;;;;;8.70;4.70;;;;;;;5.51;50.22;98367.12;108931;1269;22509;-76
2024/01/30 08:07:26;;;;;;;6.70;4.70;;;;;;;5.45;49.60;98363.64;108841;1273;22538;-76
2024/01/30 08:09:59;;;;;;;7.70;4.00;;;;;;;5.49;49.90;98371.05;108915;1267;22466;-76
2024/01/30 08:12:33;;;;;;;5.50;3.20;;;;;;;5.65;49.01;98354.13;108871;1266;25447;-76
2024/01/30 08:15:05;;;;;;;5.70;3.40;;;;;;;5.60;48.53;98366.70;108887;1272;22837;-76
2024/01/30 08:17:41;;;;;;;5.00;2.80;;;;;;;5.73;48.55;98365.90;108874;1266;22518;-76
2024/01/30 08:20:22;;;;;;;6.60;3.50;;;;;;;5.85;47.93;98366.25;108815;1272;22514;-76
2024/01/30 08:22:56;;;;;;;6.80;3.80;;;;;;;5.76;47.36;98362.17;108890;1272;23807;-76
2024/01/30 08:25:31;;;;;;;7.50;3.70;;;;;;;5.74;47.65;98367.35;108886;1272;22660;-76
2024/01/30 08:28:04;;;;;;;6.90;4.00;;;;;;;5.72;47.28;98359.34;108909;1271;25297;-76
2024/01/30 08:30:39;;;;;;;5.90;3.10;;;;;;;5.61;47.44;98360.32;108872;1273;22517;-76
2024/01/30 08:33:11;;;;;;;6.10;3.70;;;;;;;5.51;46.79;98365.30;108960;1272;24186;-76
2024/01/30 08:35:42;;;;;;;7.40;4.20;;;;;;;5.57;47.72;98358.86;108869;1273;22527;-76
2024/01/30 08:38:14;;;;;;;7.40;3.90;;;;;;;5.65;47.73;98369.79;108870;1266;22558;-76
2024/01/30 08:40:46;;;;;;;5.50;3.00;;;;;;;5.76;48.01;98363.64;108888;1272;22518;-76
2024/01/30 08:43:19;;;;;;;8.30;3.90;;;;;;;5.73;47.00;98364.84;108829;1272;22538;-76
2024/01/30 08:45:50;;;;;;;7.90;4.80;;;;;;;5.64;47.32;98367.49;108936;1273;22569;-76
2024/01/30 08:48:25;;;;;;;5.50;2.90;;;;;;;5.75;47.70;98360.19;108899;1272;22577;-76
2024/01/30 08:51:01;;;;;;;5.80;3.40;;;;;;;5.69;46.74;98359.43;108887;1269;22521;-76
2024/01/30 08:53:32;;;;;;;8.30;3.60;;;;;;;5.60;46.91;98362.70;108846;1273;23816;-76
2024/01/30 08:56:07;;;;;;;5.80;3.10;;;;;;;5.60;47.34;98365.46;108930;1269;24189;-76
2024/01/30 08:58:38;;;;;;;8.10;5.10;;;;;;;5.56;46.05;98363.15;108896;1272;22593;-76
2024/01/30 09:01:09;;;;;;;6.50;3.60;;;;;;;5.53;47.99;98365.47;108877;1272;22533;-76
2024/01/30 09:03:43;;;;;;;6.90;4.20;;;;;;;5.60;47.44;98359.59;108849;1272;24752;-76
2024/01/30 09:06:17;;;;;;;8.10;4.80;;;;;;;5.48;47.28;98360.66;108860;1267;22540;-76
2024/01/30 09:08:51;;;;;;;5.80;3.60;;;;;;;5.38;47.14;98365.84;108885;1272;23707;-76
2024/01/30 09:11:25;;;;;;;6.80;4.20;;;;;;;5.42;47.72;98370.77;108858;1272;22599;-76
2024/01/30 09:13:57;;;;;;;8.00;4.40;;;;;;;5.53;48.14;98359.48;108899;1272;22498;-76
2024/01/30 09:16:28;;;;;;;7.90;4.20;;;;;;;5.52;47.80;98368.55;108888;1272;22643;-76
2024/01/30 09:19:09;;;;;;;7.10;3.60;;;;;;;5.46;47.30;98363.96;108872;1273;22524;-76
2024/01/30 09:21:40;;;;;;;8.10;4.70;;;;;;;5.20;46.82;98371.88;108877;1272;24228;-76
2024/01/30 09:24:11;;;;;;;7.70;4.10;;;;;;;5.17;47.68;98356.30;108891;1266;22524;-76
2024/01/30 09:26:42;;;;;;;5.80;3.20;;;;;;;5.09;46.85;98356.77;108872;1273;22536;-76
2024/01/30 09:29:17;;;;;;;8.00;5.10;;;;;;;5.05;47.80;98355.83;108852;1269;22956;-76
2024/01/30 09:31:48;;;;;;;7.00;4.00;;;;;;;5.14;47.85;98343.15;108857;1269;22824;-76
2024/01/30 09:34:20;;;;;;;8.30;4.80;;;;;;;5.16;47.87;98347.27;108905;1273;22846;-76
2024/01/30 09:36:51;;;;;;;7.20;4.70;;;;;;;5.25;48.61;98346.11;108907;1272;22666;-76
2024/01/30 09:39:24;;;;;;;7.90;3.60;;;;;;;5.32;47.58;98340.09;108855;1272;22535;-76
2024/01/30 09:42:07;;;;;;;6.30;3.70;;;;;;;5.25;47.66;98334.11;108930;1272;25085;-76
2024/01/30 09:44:44;;;;;;;6.40;3.80;;;;;;;5.27;47.94;98333.21;108872;1266;22510;-76
2024/01/30 09:47:19;;;;;;;7.70;4.70;;;;;;;5.34;47.61;98333.21;108901;1273;22546;-76
2024/01/30 09:49:52;;;;;;;7.90;4.60;;;;;;;5.27;47.36;98322.61;108910;1270;22534;-76
2024/01/30 09:52:26;;;;;;;8.60;4.30;;;;;;;5.21;46.76;98331.47;108880;1272;22629;-76
2024/01/30 09:55:00;;;;;;;7.20;3.50;;;;;;;5.16;47.02;98311.15;108873;1269;25078;-76
2024/01/30 09:57:31;;;;;;;6.20;3.70;;;;;;;5.22;47.21;98311.22;108932;1269;23152;-76
2024/01/30 10:00:05;;;;;;;7.20;4.00;;;;;;;5.27;47.69;98300.85;108920;1266;22547;-75
2024/01/30 10:02:36;;;;;;;6.30;4.00;;;;;;;5.28;47.43;98312.45;108858;1272;22625;-76
2024/01/30 10:05:16;;;;;;;7.10;3.70;;;;;;;5.27;47.73;98297.29;108879;1250;22528;-76
2024/01/30 10:07:56;;;;;;;6.50;3.70;;;;;;;5.39;47.66;98315.52;108859;1272;22517;-76
2024/01/30 10:10:30;;;;;;;6.90;3.80;;;;;;;5.53;47.55;98307.46;108921;1273;22534;-76
2024/01/30 10:13:02;;;;;;;6.70;4.10;;;;;;;5.71;47.77;98308.39;108915;1273;22546;-76
2024/01/30 10:15:35;;;;;;;7.60;4.30;;;;;;;5.75;46.76;98298.60;108936;1273;22541;-76
2024/01/30 10:18:15;;;;;;;8.40;4.00;;;;;;;5.79;46.60;98291.69;108974;1269;22526;-76
2024/01/30 10:20:46;;;;;;;6.90;3.60;;;;;;;5.78;45.83;98288.34;108993;1273;22634;-76
2024/01/30 10:23:20;;;;;;;10.30;4.90;;;;;;;5.79;45.67;98294.00;108962;1273;23823;-76
2024/01/30 10:25:53;;;;;;;7.30;4.70;;;;;;;5.80;46.23;98290.40;108912;1272;23845;-76
2024/01/30 10:28:30;;;;;;;6.70;3.60;;;;;;;5.87;45.79;98281.34;108927;1272;23312;-76
2024/01/30 10:31:04;;;;;;;8.40;3.70;;;;;;;5.95;46.48;98287.88;108877;1273;22525;-76
2024/01/30 10:33:40;;;;;;;6.40;4.00;;;;;;;6.13;46.63;98280.92;108877;1272;24389;-76
2024/01/30 10:36:16;;;;;;;8.60;4.90;;;;;;;6.18;45.74;98275.91;108909;1273;22521;-76
2024/01/30 10:38:52;;;;;;;8.30;4.60;;;;;;;6.22;45.64;98278.19;108903;1273;23681;-76
2024/01/30 10:41:28;;;;;;;10.50;3.90;;;;;;;6.29;45.30;98272.51;108872;1269;22542;-76
2024/01/30 10:44:10;;;;;;;7.70;3.60;;;;;;;6.27;44.67;98280.02;108847;1272;22554;-76
2024/01/30 10:46:43;;;;;;;7.10;3.60;;;;;;;6.33;45.33;98273.50;108882;1273;22770;-76
2024/01/30 10:49:19;;;;;;;8.30;4.30;;;;;;;6.49;45.49;98268.52;108916;1271;22544;-76
2024/01/30 10:51:53;;;;;;;6.20;4.20;;;;;;;6.65;45.01;98256.30;108899;1273;22527;-76
2024/01/30 10:54:25;;;;;;;9.70;4.10;;;;;;;6.68;43.87;98257.27;108886;1272;22712;-76
2024/01/30 10:56:58;;;;;;;6.80;4.30;;;;;;;6.68;43.84;98265.30;108892;1272;22567;-76
2024/01/30 10:59:35;;;;;;;7.00;4.40;;;;;;;6.79;43.99;98251.08;108871;1272;22539;-76
2024/01/30 11:02:08;;;;;;;8.80;4.10;;;;;;;6.80;43.18;98252.23;108866;1272;22524;-76
2024/01/30 11:04:44;;;;;;;7.50;3.80;;;;;;;6.73;43.02;98252.09;108870;1272;22521;-76
2024/01/30 11:07:26;;;;;;;5.60;3.70;;;;;;;6.75;43.83;98249.04;108924;1272;22529;-76
2024/01/30 11:10:03;;;;;;;6.50;3.70;;;;;;;6.89;44.19;98247.91;108833;1272;25294;-76
2024/01/30 11:12:43;;;;;;;7.60;3.90;;;;;;;6.94;43.42;98244.52;108877;1267;22537;-76
2024/01/30 11:15:17;;;;;;;5.80;3.40;;;;;;;6.96;43.20;98236.08;108871;1272;22574;-76
2024/01/30 11:18:01;;;;;;;8.40;4.50;;;;;;;7.06;43.26;98237.98;108939;1273;22547;-76
2024/01/30 11:20:35;;;;;;;7.90;4.00;;;;;;;7.06;42.50;98240.16;108913;1269;22859;-76
2024/01/30 11:23:12;;;;;;;6.70;3.70;;;;;;;6.97;42.58;98230.26;108839;1270;22913;-76
2024/01/30 11:25:46;;;;;;;7.30;4.40;;;;;;;6.94;42.53;98221.25;108900;1273;22528;-77
2024/01/30 11:28:18;;;;;;;6.50;3.60;;;;;;;6.95;43.55;98226.20;108897;1272;22550;-77
2024/01/30 11:30:50;;;;;;;7.20;3.90;;;;;;;6.96;43.47;98223.85;108881;1272;24218;-77
2024/01/30 11:33:34;;;;;;;8.50;4.30;;;;;;;6.96;43.02;98223.17;108877;1270;22539;-77
2024/01/30 11:36:11;;;;;;;8.40;4.30;;;;;;;6.96;43.00;98230.02;108913;1273;22539;-77
2024/01/30 11:38:45;;;;;;;7.80;3.80;;;;;;;7.06;43.52;98231.20;108880;1272;22565;-77
2024/01/30 11:41:21;;;;;;;8.00;4.70;;;;;;;7.09;43.51;98230.53;108884;1272;22568;-77
2024/01/30 11:43:58;;;;;;;9.10;4.90;;;;;;;7.10;43.20;98235.05;108899;1273;22546;-76
2024/01/30 11:46:29;;;;;;;7.90;5.20;;;;;;;7.07;43.59;98231.96;108911;1270;22567;-77
2024/01/30 11:49:05;;;;;;;9.40;4.40;;;;;;;7.12;43.92;98230.85;108886;1272;23839;-77
2024/01/30 11:51:38;;;;;;;7.50;3.90;;;;;;;7.10;43.18;98226.58;108862;1272;22743;-77
2024/01/30 11:54:12;;;;;;;8.60;4.40;;;;;;;7.14;44.11;98222.52;108915;1272;25420;-77
2024/01/30 11:56:49;;;;;;;8.10;4.50;;;;;;;7.18;42.90;98220.66;108883;1273;23721;-77
2024/01/30 11:59:25;;;;;;;7.70;3.60;;;;;;;7.19;43.43;98220.14;108925;1269;23870;-77
2024/01/30 12:01:56;;;;;;;5.40;3.00;;;;;;;7.17;43.10;98224.16;108743;1272;150312;-77
2024/01/30 12:04:33;;;;;;;7.90;4.10;;;;;;;7.17;43.24;98219.62;108915;1272;22610;-77